Terminal Aerodrome Forecast
Issued by NWS Upton, NY

Home | Current Version | Previous Version | Text Only | Print | Product List | Glossary On
Versions: 1 2 3 4 5 6 7 8 9 10 11 12 13 14 15 16 17 18 19 20 21 22 23 24 25 26 27 28 29 30 31 32 33 34
738
FTUS41 KOKX 280830 AAA
TAFJFK
TAF AMD
KJFK 280830Z 2809/2912 03006KT P6SM SCT250
     FM281100 04008KT P6SM SCT040 BKN250
      TEMPO 2811/2814 BKN040
     FM281400 05012G17KT P6SM BKN025
     FM281800 05014G21KT P6SM -RA BKN020
     FM290300 05014G21KT P6SM -RA BKN015=

USA.gov is the U.S. government's official web portal to all federal, state and local government web resources and services.